Del Rio International Airport
KDRT : now visible

Airfield :











YOU CAN JOIN US ON...

 
LOGIN :

Register | Disclaimer

   EN    FR    IT 

 









Legend :    VFR   Marginal VFR   IFR   Intensive IFR   Very Intensive IFR
Visi :
Ceiling :
>= 8 km
>= 3000ft
5 to 8 km
1000 to 3000 ft
1500m to 5 km
500 to 1000 ft
800 to 1500m
200 to 500 ft
< 800m
< 200 ft
Symbols :   Thunderstorms  Fog  Heavy snow  Heavy precipitations  Wind > 20 kt






- Airport Elevation : 1002 ft


KDRT - Del Rio International

CURRENT METAR :
  • 211530Z AUTO 14014G24KT 10SM SCT017 BKN048 26/20 A3002 RMK AO2 T02610200 TSNO

EXPIRED METARs :
  • 211453Z AUTO 14011KT 10SM BKN017 BKN024 24/21 A3002 RMK AO2 SLP148 T02440206 51020 TSNO
  • 211424Z AUTO 14012KT 10SM SCT013 OVC023 24/21 A3001 RMK AO2 T02390206 TSNO
  • 211405Z AUTO 14012KT 10SM BKN013 OVC024 24/21 A3000 RMK AO2 T02390206 TSNO
  • 211353Z AUTO 13014KT 10SM SCT013 OVC024 24/21 A3000 RMK AO2 SLP142 T02390206 TSNO
  • 211253Z AUTO 13015KT 10SM SCT013 OVC021 23/20 A2998 RMK AO2 SLP136 T02330200 TSNO

TAF KDRT
Valid from the 21 at 12:00 until the 22 at 12:00 UTC


211123Z 2112/2212 12012KT P6SM BKN012
FM211700 14012G22KT P6SM SCT040 SCT150
FM220000 12010KT P6SM SCT150
KZHU FIR / North America



MET'MAP, your aeronautical weather chart ! - Copyright ORBIFLY December 2007 - Disclaimer

ORBIFLY MET'MAP TEAM :

Programming & Development : Alexandra Zaïnal
Concept & original design : Baudouin d'Aumeries
Assistance for programming : Marc-Olivier Méhu
Technical & hardware support : Manuel Goepfert

Contact : metmap@orbifly.com




SOURCES & CREDITS :

   NOAA       Earth
Advisory